Hauptseite
METAR-TAF:

METAR-TAF

Flughäfen :

Flughafen Antonio B. Won Pat

Hagåtña, Guam, Vereinigte Staaten

Breite: 13-29N, Länge: 144-48E, Höhe: 91 m

Beobachtung

Neuester Wetterbericht von vor 33 Minuten, um 12:54 UTC
Wind 14 kt aus Ost, Böen bis zu 20 kt
Temperatur 28°C
Luftfeuchtigkeit 89%
Luftdruck 1013 hPa
Sichtweite: 16.1 km
Aufgelockert bewölkt in der Höhe von 1900 ft

METAR: PGUM 211254Z 08014G20KT 10SM SCT019 28/26 A2990 RMK AO2 SLP117 T02830256

Zeit: 23:27 (13:27 UTC)

Prognose

Neuester Wetterbericht von vor 2 Stunden und 7 Minuten, um 11:20 UTC
Gültige Prognose vom 21 um 12 UTC bis 22 um 18 UTC
Wind 15 kt aus Ost, Böen bis zu 25 kt
Sichtweite: 10 km
Aufgelockert bewölkt in der Höhe von 1500 ft
Durchbrochene Bewölkung in der Höhe von 2500 ft
Schauer in der Nähe,

TAF: PGUM 211120Z 2112/2218 09015G25KT P6SM VCSH SCT015 BKN025

Wetterbeobachtungen und Prognosen von mehr als 4000 Flughäfen (METAR und TAF Bericht).

Die verfügbaren Stationen werden durch gelbe und rote Markierungen auf der Karte dargestellt.

Führen Sie die Maus auf sie, um den Namen der Station zu sehen.

Darauf klicken, um die Beobachtung von Wetterbeobachtungen und Prognosen zu sehen.

Um die Karte zu ändern : klicken Sie auf den grünen Tasten mit einem schwarzen Kreuz Zum Vergrößern, auf den grünen Button mit einem Gedankenstrich zu verkleinern, oder auf die grünen Pfeile für benachbarte Karten.


METAR-TAF: